Time;durP1;ratioP1;P1;durP2;ratioP2;P2;SDS_P1;SDS_P2;PMS_P1;PMS_P2;Temp;Humidity;BMP_temperature;BMP_pressure;BME280_temperature;BME280_humidity;BME280_pressure;Samples;Min_cycle;Max_cycle;Signal;HPM_P1;HPM_P2
2023/02/19 00:01:08;;;;;;;12.35;5.47;;;;;;;;;;5034868;28;20056;-80
2023/02/19 00:03:34;;;;;;;14.50;5.68;;;;;;;;;;5032846;28;20099;-80
2023/02/19 00:06:04;;;;;;;13.88;5.57;;;;;;;;;;5032242;28;20044;-80
2023/02/19 00:08:31;;;;;;;14.98;5.78;;;;;;;;;;5032618;28;20498;-79
2023/02/19 00:11:02;;;;;;;15.48;5.38;;;;;;;;;;5032320;28;20474;-80
2023/02/19 00:13:27;;;;;;;10.45;5.28;;;;;;;;;;5034525;28;20036;-79
2023/02/19 00:15:52;;;;;;;15.57;5.18;;;;;;;;;;5033269;28;20034;-79
2023/02/19 00:18:18;;;;;;;17.60;6.00;;;;;;;;;;5033125;28;20124;-79
2023/02/19 00:20:43;;;;;;;14.13;5.47;;;;;;;;;;5032848;28;20076;-79
2023/02/19 00:23:08;;;;;;;12.65;5.15;;;;;;;;;;5033042;28;20109;-79
2023/02/19 00:25:36;;;;;;;15.07;5.95;;;;;;;;;;5025535;28;20033;-79
2023/02/19 00:28:02;;;;;;;15.85;6.55;;;;;;;;;;5026096;28;20029;-79
2023/02/19 00:30:28;;;;;;;15.93;6.40;;;;;;;;;;5030120;28;20036;-79
2023/02/19 00:32:54;;;;;;;17.05;6.40;;;;;;;;;;5026651;28;20037;-79
2023/02/19 00:35:20;;;;;;;16.52;6.60;;;;;;;;;;5032696;28;20026;-80
2023/02/19 00:37:45;;;;;;;18.35;6.70;;;;;;;;;;5039427;28;20032;-79
2023/02/19 00:40:10;;;;;;;18.20;6.70;;;;;;;;;;5027002;28;20113;-79
2023/02/19 00:42:36;;;;;;;14.55;6.32;;;;;;;;;;5037902;28;20119;-79
2023/02/19 00:45:01;;;;;;;14.90;6.00;;;;;;;;;;5035310;28;20087;-79
2023/02/19 00:47:26;;;;;;;14.43;5.63;;;;;;;;;;5037741;28;20017;-80
2023/02/19 00:49:52;;;;;;;16.63;6.43;;;;;;;;;;5036725;28;20049;-80
2023/02/19 00:52:17;;;;;;;11.80;6.05;;;;;;;;;;5035725;28;20047;-79
2023/02/19 00:54:43;;;;;;;15.57;5.28;;;;;;;;;;5036211;28;20025;-79
2023/02/19 00:57:08;;;;;;;15.77;5.50;;;;;;;;;;5025392;28;20064;-80
2023/02/19 00:59:35;;;;;;;14.13;5.32;;;;;;;;;;5035133;28;20025;-79
2023/02/19 01:02:01;;;;;;;16.52;5.50;;;;;;;;;;5036912;28;20079;-80
2023/02/19 01:04:26;;;;;;;13.43;5.65;;;;;;;;;;5038183;28;20104;-79
2023/02/19 01:06:52;;;;;;;16.60;5.38;;;;;;;;;;5023866;28;20022;-79
2023/02/19 01:09:17;;;;;;;12.38;5.03;;;;;;;;;;5031268;28;20052;-79
2023/02/19 01:11:43;;;;;;;14.10;4.88;;;;;;;;;;5040171;28;20053;-79
2023/02/19 01:14:09;;;;;;;19.08;5.07;;;;;;;;;;5030137;28;20088;-79
2023/02/19 01:16:35;;;;;;;16.48;5.13;;;;;;;;;;5035488;28;20026;-79
2023/02/19 01:19:00;;;;;;;17.02;4.85;;;;;;;;;;5031838;28;20040;-79
2023/02/19 01:21:27;;;;;;;15.48;4.97;;;;;;;;;;5035722;28;20025;-79
2023/02/19 01:23:52;;;;;;;13.60;4.82;;;;;;;;;;5035128;28;20029;-80
2023/02/19 01:26:20;;;;;;;15.02;5.13;;;;;;;;;;5034297;28;20091;-80
2023/02/19 01:28:47;;;;;;;11.48;4.28;;;;;;;;;;5036752;28;20022;-79
2023/02/19 01:31:15;;;;;;;13.13;5.30;;;;;;;;;;5034664;28;20048;-79
2023/02/19 01:34:01;;;;;;;18.80;5.95;;;;;;;;;;5035521;28;20022;-80
2023/02/19 01:36:28;;;;;;;12.10;4.93;;;;;;;;;;5035371;28;20600;-79
2023/02/19 01:38:54;;;;;;;14.00;4.63;;;;;;;;;;5032509;28;20029;-79
2023/02/19 01:41:24;;;;;;;15.55;5.43;;;;;;;;;;5028154;28;20029;-80
2023/02/19 01:43:57;;;;;;;16.48;4.85;;;;;;;;;;5036103;28;20025;-80
2023/02/19 01:46:28;;;;;;;13.52;4.95;;;;;;;;;;5034781;28;20490;-79
2023/02/19 01:48:57;;;;;;;13.32;4.38;;;;;;;;;;5034190;28;20482;-79
2023/02/19 01:51:23;;;;;;;16.65;5.00;;;;;;;;;;5035058;28;20481;-80
2023/02/19 01:53:54;;;;;;;17.08;4.80;;;;;;;;;;5031938;28;20029;-79
2023/02/19 01:56:21;;;;;;;13.20;5.00;;;;;;;;;;5038666;28;20029;-79
2023/02/19 01:58:47;;;;;;;14.63;4.15;;;;;;;;;;5034517;28;20474;-80
2023/02/19 02:01:13;;;;;;;15.52;4.60;;;;;;;;;;5024396;28;20040;-80
2023/02/19 02:03:40;;;;;;;10.20;3.22;;;;;;;;;;5022152;28;20072;-80
2023/02/19 02:06:46;;;;;;;16.52;4.05;;;;;;;;;;5022373;28;20447;-79
2023/02/19 02:11:56;;;;;;;13.13;3.40;;;;;;;;;;5033197;28;20036;-80
2023/02/19 02:14:26;;;;;;;10.82;3.28;;;;;;;;;;5034900;28;20025;-80
2023/02/19 02:17:06;;;;;;;11.80;3.25;;;;;;;;;;5034680;28;20026;-80
2023/02/19 02:19:59;;;;;;;12.30;2.75;;;;;;;;;;5032932;28;20078;-79
2023/02/19 02:22:36;;;;;;;15.07;3.35;;;;;;;;;;5021780;28;20123;-80
2023/02/19 02:25:22;;;;;;;9.82;2.92;;;;;;;;;;5034327;28;20044;-79
2023/02/19 02:27:58;;;;;;;8.10;3.10;;;;;;;;;;5030982;28;20209;-79
2023/02/19 02:30:42;;;;;;;15.38;3.30;;;;;;;;;;5033868;28;20057;-79
2023/02/19 02:33:30;;;;;;;8.30;2.70;;;;;;;;;;5033587;28;20036;-79
2023/02/19 02:36:09;;;;;;;11.15;2.55;;;;;;;;;;5034287;28;20083;-79
2023/02/19 02:38:37;;;;;;;10.85;2.65;;;;;;;;;;5033281;28;20090;-79
2023/02/19 02:41:04;;;;;;;9.02;2.17;;;;;;;;;;5031878;28;20076;-79
2023/02/19 02:43:30;;;;;;;9.20;2.58;;;;;;;;;;5031115;28;20017;-80
2023/02/19 02:45:56;;;;;;;11.27;2.45;;;;;;;;;;5031629;28;20021;-79
2023/02/19 02:48:28;;;;;;;10.32;2.40;;;;;;;;;;5034285;28;20025;-79
2023/02/19 02:51:00;;;;;;;14.57;2.85;;;;;;;;;;5034319;28;20021;-79
2023/02/19 02:56:18;;;;;;;12.10;2.75;;;;;;;;;;5030844;28;20555;-79
2023/02/19 02:58:46;;;;;;;7.65;2.22;;;;;;;;;;5032663;28;20033;-79
2023/02/19 03:04:12;;;;;;;8.18;2.15;;;;;;;;;;5025926;28;20113;-79
2023/02/19 03:06:40;;;;;;;10.55;2.47;;;;;;;;;;5033339;28;20124;-79
2023/02/19 03:09:21;;;;;;;9.40;2.47;;;;;;;;;;5035427;28;20678;-79
2023/02/19 03:20:40;;;;;;;9.15;2.75;;;;;;;;;;5031107;28;20043;-79
2023/02/19 03:23:08;;;;;;;11.80;2.60;;;;;;;;;;5035172;28;20047;-79
2023/02/19 03:29:21;;;;;;;9.57;2.00;;;;;;;;;;5031203;28;20032;-79
2023/02/19 03:31:13;;;;;;;9.20;2.42;;;;;;;;;;5033347;28;20039;-79
2023/02/19 03:33:40;;;;;;;8.20;2.20;;;;;;;;;;5033396;28;20033;-79
2023/02/19 03:36:09;;;;;;;7.93;2.20;;;;;;;;;;5027763;28;20474;-79
2023/02/19 03:38:52;;;;;;;8.77;2.22;;;;;;;;;;5024622;28;20112;-80
2023/02/19 03:41:34;;;;;;;8.38;2.00;;;;;;;;;;5033387;28;20057;-79
2023/02/19 03:44:02;;;;;;;9.38;2.47;;;;;;;;;;5027309;28;20381;-79
2023/02/19 03:46:53;;;;;;;12.48;2.40;;;;;;;;;;5021120;28;20017;-79
2023/02/19 03:49:42;;;;;;;10.07;2.42;;;;;;;;;;5017569;28;20584;-79
2023/02/19 03:52:31;;;;;;;8.30;2.80;;;;;;;;;;5032234;28;20054;-79
2023/02/19 03:55:00;;;;;;;7.43;2.15;;;;;;;;;;5031103;28;20034;-79
2023/02/19 03:57:44;;;;;;;13.10;3.08;;;;;;;;;;5032912;28;20061;-79
2023/02/19 04:00:24;;;;;;;7.40;2.30;;;;;;;;;;5036954;28;20025;-78
2023/02/19 04:02:57;;;;;;;11.07;2.70;;;;;;;;;;5038465;28;20025;-79
2023/02/19 04:05:26;;;;;;;6.85;2.30;;;;;;;;;;5032780;28;20025;-79
2023/02/19 04:07:56;;;;;;;10.15;2.80;;;;;;;;;;5037434;28;20061;-79
2023/02/19 04:10:22;;;;;;;10.60;2.55;;;;;;;;;;5036064;28;20033;-78
2023/02/19 04:12:54;;;;;;;8.02;2.05;;;;;;;;;;5031460;28;20108;-79
2023/02/19 04:15:24;;;;;;;9.07;2.80;;;;;;;;;;5036639;28;20021;-78
2023/02/19 04:17:59;;;;;;;6.60;2.20;;;;;;;;;;5035139;28;20025;-78
2023/02/19 04:20:27;;;;;;;4.80;2.15;;;;;;;;;;5032473;28;20025;-78
2023/02/19 04:22:53;;;;;;;6.35;2.38;;;;;;;;;;5039730;28;20030;-78
2023/02/19 04:25:19;;;;;;;9.70;2.47;;;;;;;;;;5037315;28;20083;-79
2023/02/19 04:27:45;;;;;;;9.30;2.65;;;;;;;;;;5037776;28;20021;-79
2023/02/19 04:30:13;;;;;;;8.68;2.38;;;;;;;;;;5035218;28;20032;-79
2023/02/19 04:32:38;;;;;;;8.35;2.15;;;;;;;;;;5037043;28;20473;-79
2023/02/19 04:35:04;;;;;;;9.43;2.60;;;;;;;;;;5036636;28;20166;-79
2023/02/19 04:37:29;;;;;;;9.93;2.75;;;;;;;;;;5036866;28;20033;-79
2023/02/19 04:39:55;;;;;;;8.55;2.60;;;;;;;;;;5036159;28;20021;-79
2023/02/19 04:42:20;;;;;;;11.32;2.53;;;;;;;;;;5034839;28;20222;-79
2023/02/19 04:44:45;;;;;;;12.48;3.03;;;;;;;;;;5032193;28;20021;-79
2023/02/19 04:47:11;;;;;;;10.60;2.67;;;;;;;;;;5033728;28;20416;-79
2023/02/19 04:49:36;;;;;;;9.70;2.58;;;;;;;;;;5036951;28;20029;-79
2023/02/19 04:52:02;;;;;;;8.93;2.35;;;;;;;;;;5032106;28;20417;-79
2023/02/19 04:54:27;;;;;;;8.57;2.50;;;;;;;;;;5034343;28;20473;-80
2023/02/19 04:56:52;;;;;;;11.82;3.17;;;;;;;;;;5034498;28;20029;-79
2023/02/19 04:59:18;;;;;;;9.98;2.72;;;;;;;;;;5038665;28;20397;-79
2023/02/19 05:01:43;;;;;;;7.32;2.22;;;;;;;;;;5031218;28;20021;-79
2023/02/19 05:04:09;;;;;;;8.32;2.45;;;;;;;;;;5036198;28;20024;-79
2023/02/19 05:06:34;;;;;;;10.27;2.95;;;;;;;;;;5036530;28;20026;-79
2023/02/19 05:08:59;;;;;;;8.23;2.72;;;;;;;;;;5036604;28;20032;-79
2023/02/19 05:11:25;;;;;;;12.93;2.70;;;;;;;;;;5036228;28;20489;-79
2023/02/19 05:13:50;;;;;;;13.23;3.30;;;;;;;;;;5034994;28;20017;-79
2023/02/19 05:16:17;;;;;;;8.00;2.72;;;;;;;;;;5031389;28;20159;-79
2023/02/19 05:18:44;;;;;;;9.05;2.55;;;;;;;;;;5035632;28;20028;-79
2023/02/19 05:21:10;;;;;;;8.50;2.30;;;;;;;;;;5035227;28;20397;-79
2023/02/19 05:23:36;;;;;;;8.02;2.33;;;;;;;;;;5034277;28;20033;-79
2023/02/19 05:26:06;;;;;;;7.50;2.75;;;;;;;;;;5036205;28;20040;-79
2023/02/19 05:28:32;;;;;;;8.77;2.08;;;;;;;;;;5035568;28;20052;-79
2023/02/19 05:31:02;;;;;;;12.77;2.50;;;;;;;;;;5035853;28;20021;-79
2023/02/19 05:33:27;;;;;;;6.63;2.40;;;;;;;;;;5027477;28;20418;-80
2023/02/19 05:35:54;;;;;;;6.97;2.08;;;;;;;;;;5031558;28;20028;-80
2023/02/19 05:38:20;;;;;;;9.40;2.58;;;;;;;;;;5035484;28;20028;-79
2023/02/19 05:40:46;;;;;;;6.68;2.05;;;;;;;;;;5027778;28;20029;-80
2023/02/19 05:43:12;;;;;;;8.43;2.55;;;;;;;;;;5036006;28;20013;-79
2023/02/19 05:45:37;;;;;;;7.70;2.28;;;;;;;;;;5032725;28;20033;-80
2023/02/19 05:48:04;;;;;;;8.20;2.33;;;;;;;;;;5035046;28;20025;-79
2023/02/19 05:50:35;;;;;;;10.48;2.80;;;;;;;;;;5027831;28;20053;-79
2023/02/19 05:53:01;;;;;;;6.53;2.80;;;;;;;;;;5034757;28;20025;-79
2023/02/19 05:55:28;;;;;;;6.65;2.17;;;;;;;;;;5032765;28;20425;-79
2023/02/19 05:57:53;;;;;;;8.30;2.03;;;;;;;;;;5026933;28;20022;-79
2023/02/19 06:00:19;;;;;;;8.23;2.53;;;;;;;;;;5034755;28;20116;-79
2023/02/19 06:02:45;;;;;;;5.43;2.10;;;;;;;;;;5035080;28;20466;-79
2023/02/19 06:05:11;;;;;;;6.68;2.45;;;;;;;;;;5034921;28;20025;-80
2023/02/19 06:07:41;;;;;;;6.43;1.92;;;;;;;;;;5040250;28;20029;-80
2023/02/19 06:10:09;;;;;;;5.75;1.98;;;;;;;;;;5032902;28;20035;-80
2023/02/19 06:12:34;;;;;;;5.15;2.22;;;;;;;;;;5033251;28;20025;-80
2023/02/19 06:14:59;;;;;;;7.72;2.25;;;;;;;;;;5034450;28;20026;-79
2023/02/19 06:17:25;;;;;;;8.73;2.15;;;;;;;;;;5039468;28;20018;-80
2023/02/19 06:19:50;;;;;;;6.53;2.42;;;;;;;;;;5032975;28;20116;-80
2023/02/19 06:22:16;;;;;;;9.45;2.60;;;;;;;;;;5038016;28;20026;-80
2023/02/19 06:24:41;;;;;;;6.55;2.42;;;;;;;;;;5028421;28;20026;-80
2023/02/19 06:27:08;;;;;;;7.25;2.58;;;;;;;;;;5031974;28;20080;-80
2023/02/19 06:29:34;;;;;;;8.57;2.95;;;;;;;;;;5027112;28;20021;-80
2023/02/19 06:31:59;;;;;;;11.82;3.20;;;;;;;;;;5033769;28;20098;-79
2023/02/19 06:34:25;;;;;;;8.82;3.05;;;;;;;;;;5034026;28;20358;-80
2023/02/19 06:36:51;;;;;;;9.23;3.17;;;;;;;;;;5032739;28;20049;-80
2023/02/19 06:39:16;;;;;;;8.52;3.30;;;;;;;;;;5015660;28;20463;-80
2023/02/19 06:41:42;;;;;;;8.82;3.33;;;;;;;;;;5032645;28;20026;-80
2023/02/19 06:44:07;;;;;;;9.85;3.58;;;;;;;;;;5032466;28;20064;-80
2023/02/19 06:46:33;;;;;;;11.77;3.63;;;;;;;;;;5032486;28;20017;-80
2023/02/19 06:48:58;;;;;;;10.07;2.88;;;;;;;;;;5033130;28;20102;-79
2023/02/19 06:51:26;;;;;;;10.40;3.53;;;;;;;;;;5032005;28;20024;-80
2023/02/19 06:53:52;;;;;;;8.05;3.13;;;;;;;;;;5029038;28;20097;-80
2023/02/19 06:56:26;;;;;;;5.80;3.00;;;;;;;;;;5022337;28;20543;-80
2023/02/19 06:58:53;;;;;;;9.13;3.03;;;;;;;;;;5032837;28;20025;-80
2023/02/19 07:01:19;;;;;;;10.32;3.25;;;;;;;;;;5033563;28;20103;-80
2023/02/19 07:03:44;;;;;;;9.27;3.00;;;;;;;;;;5036147;28;20036;-80
2023/02/19 07:06:10;;;;;;;7.55;3.35;;;;;;;;;;5038672;28;20017;-80
2023/02/19 07:08:35;;;;;;;8.80;3.30;;;;;;;;;;5031847;28;20033;-80
2023/02/19 07:11:00;;;;;;;7.57;3.15;;;;;;;;;;5032219;28;20065;-80
2023/02/19 07:13:26;;;;;;;10.77;2.70;;;;;;;;;;5032301;28;20017;-80
2023/02/19 07:15:59;;;;;;;9.90;2.80;;;;;;;;;;5032377;28;20430;-80
2023/02/19 07:18:24;;;;;;;9.40;3.05;;;;;;;;;;5032105;28;20520;-80
2023/02/19 07:20:49;;;;;;;7.03;2.83;;;;;;;;;;5031989;28;20029;-79
2023/02/19 07:23:15;;;;;;;8.98;3.22;;;;;;;;;;5029118;28;20079;-79
2023/02/19 07:25:40;;;;;;;9.02;2.80;;;;;;;;;;5033275;28;20112;-79
2023/02/19 07:28:06;;;;;;;5.88;2.63;;;;;;;;;;5031664;28;20367;-79
2023/02/19 07:30:31;;;;;;;7.55;3.42;;;;;;;;;;5032917;28;20057;-79
2023/02/19 07:32:57;;;;;;;8.05;2.97;;;;;;;;;;5028405;28;20100;-78
2023/02/19 07:35:22;;;;;;;5.20;2.97;;;;;;;;;;5034587;28;20028;-79
2023/02/19 07:37:48;;;;;;;8.27;3.00;;;;;;;;;;5032814;28;20108;-79
2023/02/19 07:40:13;;;;;;;6.20;3.55;;;;;;;;;;5028391;28;20078;-79
2023/02/19 07:42:39;;;;;;;5.93;2.85;;;;;;;;;;5031703;28;20034;-79
2023/02/19 07:45:04;;;;;;;8.40;2.78;;;;;;;;;;5039822;28;20029;-79
2023/02/19 07:47:30;;;;;;;7.05;3.03;;;;;;;;;;5033029;28;20017;-79
2023/02/19 07:49:55;;;;;;;5.47;2.95;;;;;;;;;;5030882;28;20021;-80
2023/02/19 07:52:20;;;;;;;6.90;3.25;;;;;;;;;;5032177;28;20156;-79
2023/02/19 07:54:46;;;;;;;8.15;3.42;;;;;;;;;;5031319;28;20497;-79
2023/02/19 07:57:11;;;;;;;7.53;3.47;;;;;;;;;;5032546;28;20080;-80
2023/02/19 07:59:37;;;;;;;7.78;3.65;;;;;;;;;;5029739;28;20029;-80
2023/02/19 08:04:47;;;;;;;9.23;3.70;;;;;;;;;;5036084;28;20040;-80
2023/02/19 08:07:12;;;;;;;9.90;4.32;;;;;;;;;;5031243;28;20037;-80
2023/02/19 08:09:38;;;;;;;9.30;3.70;;;;;;;;;;5031218;28;20037;-80
2023/02/19 08:14:47;;;;;;;9.57;3.95;;;;;;;;;;5031384;28;20140;-80
2023/02/19 08:17:12;;;;;;;8.27;3.75;;;;;;;;;;5032400;28;20489;-80
2023/02/19 08:19:38;;;;;;;6.40;3.22;;;;;;;;;;5027702;28;20072;-79
2023/02/19 08:22:03;;;;;;;7.50;3.70;;;;;;;;;;5032557;28;20076;-80
2023/02/19 08:24:30;;;;;;;6.05;3.30;;;;;;;;;;5027999;28;20386;-80
2023/02/19 08:26:55;;;;;;;7.88;3.30;;;;;;;;;;5031601;28;20057;-80
2023/02/19 08:29:20;;;;;;;9.60;3.50;;;;;;;;;;5028877;28;20053;-80
2023/02/19 08:31:46;;;;;;;7.22;3.35;;;;;;;;;;5032386;28;20034;-80
2023/02/19 08:34:11;;;;;;;8.18;3.35;;;;;;;;;;5030834;28;20028;-80
2023/02/19 08:36:37;;;;;;;9.48;3.70;;;;;;;;;;5032288;28;20024;-80
2023/02/19 08:39:02;;;;;;;8.68;3.60;;;;;;;;;;5029464;28;20469;-79
2023/02/19 08:41:28;;;;;;;5.97;3.88;;;;;;;;;;5026578;28;20068;-80
2023/02/19 08:43:53;;;;;;;8.38;3.67;;;;;;;;;;5031026;28;20186;-79
2023/02/19 08:46:18;;;;;;;7.25;3.08;;;;;;;;;;5032658;28;20030;-80
2023/02/19 08:48:44;;;;;;;6.25;3.03;;;;;;;;;;5033919;28;20060;-80
2023/02/19 08:51:10;;;;;;;9.93;3.50;;;;;;;;;;5031403;28;20030;-80
2023/02/19 08:53:37;;;;;;;5.63;2.88;;;;;;;;;;5034560;28;20052;-80
2023/02/19 08:56:15;;;;;;;5.55;3.10;;;;;;;;;;5036275;28;20064;-79
2023/02/19 08:58:40;;;;;;;9.25;3.30;;;;;;;;;;5032068;28;20030;-80
2023/02/19 09:01:15;;;;;;;8.40;3.17;;;;;;;;;;5035936;28;20032;-79
2023/02/19 09:03:40;;;;;;;6.13;2.70;;;;;;;;;;5035695;28;20481;-79
2023/02/19 09:06:06;;;;;;;6.90;2.83;;;;;;;;;;5035848;28;20093;-79
2023/02/19 09:08:31;;;;;;;6.90;3.20;;;;;;;;;;5033358;28;20037;-79
2023/02/19 09:11:02;;;;;;;5.88;2.75;;;;;;;;;;5035686;28;20021;-79
2023/02/19 09:13:27;;;;;;;5.65;2.60;;;;;;;;;;5035259;28;20053;-79
2023/02/19 09:15:53;;;;;;;5.63;2.38;;;;;;;;;;5025465;28;20099;-79
2023/02/19 09:18:18;;;;;;;5.13;2.13;;;;;;;;;;5032721;28;20512;-79
2023/02/19 09:20:43;;;;;;;5.47;2.35;;;;;;;;;;5031239;28;20021;-79
2023/02/19 09:23:09;;;;;;;7.32;2.22;;;;;;;;;;5033595;28;20473;-79
2023/02/19 09:25:34;;;;;;;4.45;1.95;;;;;;;;;;5033529;28;20115;-79
2023/02/19 09:28:00;;;;;;;6.55;2.08;;;;;;;;;;5033977;28;20071;-79
2023/02/19 09:30:25;;;;;;;3.90;2.30;;;;;;;;;;5024851;28;20529;-79
2023/02/19 09:32:50;;;;;;;4.38;2.45;;;;;;;;;;5033901;28;20029;-80
2023/02/19 09:35:16;;;;;;;5.55;2.60;;;;;;;;;;5039552;28;20064;-80
2023/02/19 09:37:41;;;;;;;5.50;3.15;;;;;;;;;;5035911;28;20025;-79
2023/02/19 09:40:08;;;;;;;5.38;2.60;;;;;;;;;;5033741;28;20056;-79
2023/02/19 09:42:34;;;;;;;5.95;2.78;;;;;;;;;;5023130;28;20503;-80
2023/02/19 09:45:00;;;;;;;5.28;2.95;;;;;;;;;;5033726;28;20142;-79
2023/02/19 09:47:31;;;;;;;6.15;3.53;;;;;;;;;;5035575;28;20501;-79
2023/02/19 09:50:06;;;;;;;11.25;3.60;;;;;;;;;;5032827;28;20032;-79
2023/02/19 09:52:40;;;;;;;7.93;3.45;;;;;;;;;;5034681;28;20017;-80
2023/02/19 09:55:18;;;;;;;9.77;3.55;;;;;;;;;;5034683;28;20025;-79
2023/02/19 09:57:44;;;;;;;6.28;3.17;;;;;;;;;;5022526;28;20132;-79
2023/02/19 10:00:20;;;;;;;5.43;3.08;;;;;;;;;;5034531;28;20029;-80
2023/02/19 10:02:45;;;;;;;6.95;3.08;;;;;;;;;;5024967;28;20044;-80
2023/02/19 10:05:15;;;;;;;7.00;2.67;;;;;;;;;;5030584;28;20485;-80
2023/02/19 10:07:44;;;;;;;5.80;3.17;;;;;;;;;;5032941;28;20021;-79
2023/02/19 10:10:12;;;;;;;6.57;2.80;;;;;;;;;;5034826;28;20060;-80
2023/02/19 10:12:41;;;;;;;5.78;2.72;;;;;;;;;;5032245;28;20371;-80
2023/02/19 10:15:28;;;;;;;3.97;2.20;;;;;;;;;;5029932;28;20021;-79
2023/02/19 10:17:53;;;;;;;5.63;2.58;;;;;;;;;;5029366;28;20509;-80
2023/02/19 10:20:23;;;;;;;4.13;2.38;;;;;;;;;;5034365;28;20025;-80
2023/02/19 10:22:56;;;;;;;8.63;2.55;;;;;;;;;;5030964;28;20027;-80
2023/02/19 10:25:21;;;;;;;5.97;2.45;;;;;;;;;;5036694;28;20056;-80
2023/02/19 10:27:47;;;;;;;7.03;2.75;;;;;;;;;;5035885;28;20021;-80
2023/02/19 10:30:24;;;;;;;5.25;2.70;;;;;;;;;;5034396;28;20017;-80
2023/02/19 10:33:13;;;;;;;6.25;2.63;;;;;;;;;;5035196;28;20503;-80
2023/02/19 10:35:58;;;;;;;5.28;2.78;;;;;;;;;;5027806;28;21007;-79
2023/02/19 10:38:35;;;;;;;6.97;2.67;;;;;;;;;;5028929;28;20040;-80
2023/02/19 10:41:22;;;;;;;7.00;2.42;;;;;;;;;;5040060;28;20105;-79
2023/02/19 10:43:55;;;;;;;7.18;2.65;;;;;;;;;;5035540;28;20083;-82
2023/02/19 10:46:25;;;;;;;;;;;;;;;;;;5033982;28;20478;-79
2023/02/19 10:48:54;;;;;;;5.05;2.50;;;;;;;;;;5025389;28;19920;-80
2023/02/19 10:51:29;;;;;;;8.77;2.65;;;;;;;;;;5027256;28;20056;-80
2023/02/19 10:54:15;;;;;;;5.55;2.42;;;;;;;;;;5043636;28;20030;-80
2023/02/19 10:56:41;;;;;;;5.32;2.55;;;;;;;;;;5032848;28;20053;-80
2023/02/19 10:59:16;;;;;;;5.68;2.53;;;;;;;;;;5033404;28;20024;-79
2023/02/19 11:02:14;;;;;;;6.15;2.88;;;;;;;;;;5027391;28;20103;-79
2023/02/19 11:04:40;;;;;;;5.80;2.55;;;;;;;;;;5033815;28;20029;-80
2023/02/19 11:07:17;;;;;;;6.25;2.88;;;;;;;;;;5016146;28;20092;-80
2023/02/19 11:09:45;;;;;;;5.93;2.67;;;;;;;;;;5030192;28;20040;-80
2023/02/19 11:12:23;;;;;;;6.90;2.60;;;;;;;;;;5027516;28;20496;-80
2023/02/19 11:14:49;;;;;;;7.70;2.75;;;;;;;;;;5024423;28;20032;-80
2023/02/19 11:17:25;;;;;;;9.18;3.50;;;;;;;;;;5033740;28;20029;-80
2023/02/19 11:19:54;;;;;;;7.10;3.45;;;;;;;;;;5032454;28;20025;-80
2023/02/19 11:22:32;;;;;;;8.02;3.20;;;;;;;;;;5031590;28;20026;-80
2023/02/19 11:25:13;;;;;;;5.25;3.17;;;;;;;;;;5027553;28;20026;-80
2023/02/19 11:28:05;;;;;;;5.88;2.55;;;;;;;;;;5032524;28;20389;-80
2023/02/19 11:30:42;;;;;;;4.30;2.40;;;;;;;;;;5029420;28;20436;-80
2023/02/19 11:33:16;;;;;;;4.95;2.45;;;;;;;;;;5033965;28;20493;-80
2023/02/19 11:35:43;;;;;;;8.73;2.50;;;;;;;;;;5028022;28;20448;-79
2023/02/19 11:38:13;;;;;;;7.10;2.42;;;;;;;;;;5032788;28;20116;-80
2023/02/19 11:40:53;;;;;;;6.93;1.85;;;;;;;;;;5033057;28;20033;-80
2023/02/19 11:43:40;;;;;;;4.55;2.00;;;;;;;;;;5033178;28;20025;-80
2023/02/19 11:46:10;;;;;;;4.78;1.60;;;;;;;;;;5027992;28;20018;-80
2023/02/19 11:48:45;;;;;;;4.93;2.08;;;;;;;;;;5028272;28;20439;-80
2023/02/19 11:51:43;;;;;;;5.00;1.95;;;;;;;;;;5027771;28;20037;-80
2023/02/19 11:54:20;;;;;;;5.47;1.80;;;;;;;;;;5025191;28;20038;-80
2023/02/19 11:56:52;;;;;;;3.97;1.38;;;;;;;;;;5031128;28;20504;-80
2023/02/19 11:59:26;;;;;;;4.15;1.40;;;;;;;;;;5032552;28;20025;-80
2023/02/19 12:02:17;;;;;;;1.92;1.20;;;;;;;;;;5031757;28;20021;-80
2023/02/19 12:05:04;;;;;;;2.22;0.90;;;;;;;;;;5020281;28;20026;-80
2023/02/19 12:07:56;;;;;;;2.35;0.82;;;;;;;;;;5029615;28;20473;-80
2023/02/19 12:10:24;;;;;;;1.83;0.93;;;;;;;;;;5033363;28;20052;-80
2023/02/19 12:13:08;;;;;;;3.58;0.95;;;;;;;;;;5032863;28;20029;-80
2023/02/19 12:16:14;;;;;;;3.55;1.33;;;;;;;;;;5032010;28;20029;-80
2023/02/19 12:19:16;;;;;;;2.10;0.90;;;;;;;;;;5032375;28;20555;-80
2023/02/19 12:21:50;;;;;;;2.92;1.40;;;;;;;;;;5033712;28;20029;-80
2023/02/19 12:24:53;;;;;;;3.55;1.92;;;;;;;;;;5037861;28;20022;-80
2023/02/19 12:27:29;;;;;;;5.30;2.20;;;;;;;;;;5027693;28;20033;-80
2023/02/19 12:30:36;;;;;;;5.13;2.10;;;;;;;;;;5034168;28;20612;-80
2023/02/19 12:33:49;;;;;;;3.97;2.40;;;;;;;;;;5031436;28;20390;-80
2023/02/19 12:36:23;;;;;;;5.45;2.22;;;;;;;;;;5052922;28;20536;-80
2023/02/19 12:39:26;;;;;;;5.55;2.50;;;;;;;;;;5054536;28;20409;-80
2023/02/19 12:42:07;;;;;;;4.88;2.47;;;;;;;;;;5017796;28;20604;-80
2023/02/19 12:44:59;;;;;;;3.10;1.88;;;;;;;;;;5034868;28;20025;-80
2023/02/19 12:47:30;;;;;;;6.22;2.15;;;;;;;;;;5032469;28;20485;-79
2023/02/19 12:50:04;;;;;;;4.18;1.63;;;;;;;;;;5038316;28;20481;-80
2023/02/19 12:52:39;;;;;;;3.78;1.52;;;;;;;;;;5038267;28;20367;-80
2023/02/19 12:55:40;;;;;;;4.80;1.58;;;;;;;;;;5038827;28;20025;-80
2023/02/19 12:58:23;;;;;;;7.22;1.73;;;;;;;;;;5028255;28;20068;-81
2023/02/19 13:00:55;;;;;;;6.18;1.83;;;;;;;;;;5037786;28;20033;-80
2023/02/19 13:03:29;;;;;;;2.63;1.63;;;;;;;;;;5039370;28;20033;-79
2023/02/19 13:05:57;;;;;;;3.92;2.10;;;;;;;;;;5043495;28;20096;-81
2023/02/19 13:08:47;;;;;;;6.40;2.55;;;;;;;;;;5040960;28;20036;-80
2023/02/19 13:11:23;;;;;;;6.07;2.42;;;;;;;;;;5037888;28;20029;-80
2023/02/19 13:13:54;;;;;;;4.65;2.50;;;;;;;;;;5030031;28;20026;-80
2023/02/19 13:16:22;;;;;;;5.43;2.63;;;;;;;;;;5036642;28;20402;-80
2023/02/19 13:18:52;;;;;;;8.90;3.00;;;;;;;;;;5032388;28;20032;-79
2023/02/19 13:24:08;;;;;;;5.47;2.33;;;;;;;;;;5035704;28;20160;-80
2023/02/19 13:27:04;;;;;;;6.75;2.45;;;;;;;;;;5023971;28;20108;-80
2023/02/19 13:29:53;;;;;;;6.60;2.40;;;;;;;;;;5033811;28;20025;-80
2023/02/19 13:32:37;;;;;;;3.80;2.33;;;;;;;;;;5026681;28;20021;-80
2023/02/19 13:35:22;;;;;;;5.88;3.78;;;;;;;;;;5031174;28;20051;-80
2023/02/19 13:37:48;;;;;;;6.45;3.80;;;;;;;;;;5035157;28;20495;-80
2023/02/19 13:40:23;;;;;;;6.57;3.90;;;;;;;;;;5035155;28;20064;-80
2023/02/19 13:42:54;;;;;;;7.10;4.30;;;;;;;;;;5033509;28;20025;-80
2023/02/19 13:45:24;;;;;;;6.07;3.95;;;;;;;;;;5035060;28;20104;-80
2023/02/19 13:47:58;;;;;;;5.55;3.78;;;;;;;;;;5035184;28;20057;-80
2023/02/19 13:50:32;;;;;;;6.72;4.15;;;;;;;;;;5034965;28;20017;-81
2023/02/19 13:52:59;;;;;;;6.43;4.07;;;;;;;;;;5030036;28;20116;-80
2023/02/19 13:55:44;;;;;;;6.55;3.80;;;;;;;;;;5035125;28;20025;-80
2023/02/19 13:58:52;;;;;;;5.25;3.75;;;;;;;;;;5034550;28;20032;-80
2023/02/19 14:01:19;;;;;;;3.95;2.28;;;;;;;;;;4993009;28;20065;-80
2023/02/19 14:03:54;;;;;;;5.10;2.58;;;;;;;;;;4986860;28;20552;-80
2023/02/19 14:06:20;;;;;;;5.10;2.17;;;;;;;;;;5038043;28;20030;-80
2023/02/19 14:08:56;;;;;;;5.43;2.25;;;;;;;;;;5028980;28;20385;-81
2023/02/19 14:11:40;;;;;;;4.75;2.10;;;;;;;;;;5030061;28;20026;-80
2023/02/19 14:14:34;;;;;;;6.03;2.40;;;;;;;;;;5032316;28;20029;-80
2023/02/19 14:17:16;;;;;;;5.47;2.55;;;;;;;;;;5034293;28;20075;-79
2023/02/19 14:19:41;;;;;;;7.78;2.58;;;;;;;;;;5031906;28;20029;-80
2023/02/19 14:22:44;;;;;;;4.38;2.28;;;;;;;;;;5033496;28;20461;-80
2023/02/19 14:25:30;;;;;;;4.82;2.05;;;;;;;;;;5031418;28;20048;-80
2023/02/19 14:28:17;;;;;;;4.97;2.35;;;;;;;;;;5034457;28;20413;-80
2023/02/19 14:30:51;;;;;;;5.68;2.45;;;;;;;;;;5029869;28;20029;-80
2023/02/19 14:33:43;;;;;;;4.05;2.30;;;;;;;;;;5031565;28;20204;-80
2023/02/19 14:36:25;;;;;;;5.03;2.50;;;;;;;;;;5030025;28;20033;-81
2023/02/19 14:38:55;;;;;;;7.28;2.75;;;;;;;;;;5031514;28;20266;-80
2023/02/19 14:41:22;;;;;;;4.15;2.20;;;;;;;;;;5029544;28;20045;-80
2023/02/19 14:43:51;;;;;;;5.32;2.10;;;;;;;;;;5028066;28;20040;-80
2023/02/19 14:46:25;;;;;;;6.00;2.40;;;;;;;;;;5033462;28;20017;-80
2023/02/19 14:48:51;;;;;;;5.90;2.67;;;;;;;;;;5027397;28;20121;-80
2023/02/19 14:51:40;;;;;;;6.90;2.45;;;;;;;;;;5033809;28;20057;-80
2023/02/19 14:54:28;;;;;;;4.45;1.85;;;;;;;;;;5029872;28;20025;-80
2023/02/19 14:56:54;;;;;;;5.40;2.45;;;;;;;;;;5027014;28;20065;-80
2023/02/19 14:59:23;;;;;;;5.80;2.95;;;;;;;;;;5030063;28;20486;-80
2023/02/19 15:01:56;;;;;;;6.57;2.67;;;;;;;;;;5032649;28;20059;-81
2023/02/19 15:04:25;;;;;;;4.60;2.42;;;;;;;;;;5032405;28;20021;-80
2023/02/19 15:06:55;;;;;;;6.30;2.58;;;;;;;;;;5033252;28;20025;-80
2023/02/19 15:09:20;;;;;;;5.28;2.50;;;;;;;;;;5031582;28;20025;-80
2023/02/19 15:11:46;;;;;;;7.10;2.90;;;;;;;;;;5030593;28;20022;-81
2023/02/19 15:14:19;;;;;;;3.80;2.13;;;;;;;;;;5033378;28;20039;-80
2023/02/19 15:16:45;;;;;;;4.03;1.48;;;;;;;;;;5025446;28;20025;-80
2023/02/19 15:19:14;;;;;;;3.15;1.70;;;;;;;;;;5035585;28;20036;-80
2023/02/19 15:21:45;;;;;;;2.70;1.60;;;;;;;;;;5028277;28;20025;-80
2023/02/19 15:24:12;;;;;;;2.90;1.65;;;;;;;;;;5028962;28;20032;-80
2023/02/19 15:26:42;;;;;;;2.95;1.52;;;;;;;;;;5032876;28;20021;-80
2023/02/19 15:29:13;;;;;;;2.33;1.25;;;;;;;;;;5025390;28;20028;-80
2023/02/19 15:31:49;;;;;;;3.83;1.63;;;;;;;;;;5027335;28;20025;-80
2023/02/19 15:34:20;;;;;;;3.33;1.85;;;;;;;;;;5030651;28;20095;-80